Observations for Trim Patrick St
| Time | AQI | Temp °C | Hum % | Pres Pa | CO μg/m³ | H₂S μg/m³ | NO μg/m³ | NO₂ μg/m³ | O₃ μg/m³ | SO₂ μg/m³ | PM1 μg/m³ | PM2.5 μg/m³ | PM10 μg/m³ |
|---|---|---|---|---|---|---|---|---|---|---|---|---|---|
| Thursday 30 July 2026 | |||||||||||||
| 18:00 | 3 | 27 | 33 | 69,008 | 0 | 0.24 | 1.35 | 12.02 | 70.88 | 10.85 | 2 | 7.51 | 8.26 |
| 17:59 | 3 | 27.1 | 32 | 69,021 | 0 | 6.34 | 1.43 | 25.25 | 78.46 | 11.53 | 2 | 7.55 | 8.3 |
| 17:58 | 3 | 27.2 | 32 | 69,001 | 0 | 0 | 1.48 | 13.27 | 70.38 | 10.41 | 2 | 8.38 | 9.22 |
| 17:57 | 3 | 27.4 | 32 | 69,008 | 0 | 0 | 1.62 | 11.69 | 51.22 | 9.66 | 2 | 8.36 | 9.19 |
| 17:56 | 3 | 27.5 | 32 | 69,012 | 0 | 0 | 1.63 | 14.5 | 69.21 | 10.58 | 2.86 | 9.14 | 10.05 |
| 17:55 | 3 | 27.6 | 32 | 69,016 | 0 | 0 | 1.81 | 13.76 | 64.99 | 10.6 | 2.86 | 9.16 | 10.08 |
| 17:54 | 3 | 27.7 | 32 | 69,027 | 0 | 0.43 | 1.74 | 22.14 | 69.5 | 10.53 | 4.57 | 10.78 | 11.86 |
| 17:53 | 3 | 27.8 | 32 | 69,035 | 0 | 0 | 1.58 | 13.86 | 74.16 | 10.71 | 3.71 | 10.75 | 11.83 |
| 17:52 | 3 | 27.9 | 32 | 69,047 | 0 | 0 | 1.75 | 12.57 | 70.89 | 11.25 | 2.86 | 9.16 | 10.08 |
| 17:51 | 3 | 28 | 31 | 69,033 | 0 | 0 | 1.82 | 13.98 | 65.32 | 10.4 | 2.86 | 8.42 | 9.26 |
| 17:50 | 3 | 28.1 | 31 | 69,043 | 0 | 0 | 1.78 | 15.4 | 64.66 | 10.08 | 2.86 | 9.22 | 10.14 |
| 17:49 | 3 | 28.1 | 32 | 69,027 | 0 | 0 | 1.67 | 13.93 | 49.47 | 9.65 | 3.71 | 9.95 | 10.95 |
| 17:48 | 3 | 28.1 | 32 | 69,033 | 0 | 0 | 1.63 | 16.82 | 70.02 | 9.92 | 2.86 | 9.13 | 10.04 |
| 17:47 | 3 | 27.9 | 32 | 69,043 | 0 | 0.22 | 1.76 | 19.49 | 55.16 | 9 | 2.86 | 8.35 | 9.19 |
| 17:46 | 3 | 27.7 | 34 | 69,027 | 0 | 1.04 | 1.54 | 16.04 | 62.45 | 9.49 | 3.71 | 9.79 | 10.76 |
| 17:43 | 3 | 27.1 | 35 | 68,965 | 0 | 7.14 | 1.27 | 32.73 | 81.13 | 9.38 | 2 | 8.13 | 8.94 |
| 17:42 | 3 | 26.8 | 34 | 68,953 | 0 | 11.48 | 1.24 | 34.86 | 71.3 | 9.07 | 2 | 7.42 | 8.16 |
| 17:40 | 3 | 26.2 | 34 | 68,922 | 0 | 8.88 | 1.31 | 18.02 | 67.23 | 8.46 | 2 | 8.21 | 9.03 |
| 17:37 | 3 | 25.4 | 36 | 68,918 | 0 | 18.73 | 1.21 | 34.62 | 81.7 | 9.93 | 2 | 7.28 | 8.01 |
| 17:36 | 3 | 25.2 | 36 | 68,906 | 0 | 16.75 | 1.27 | 19.03 | 82.93 | 9.73 | 2 | 7.3 | 8.03 |